sensor_id;sensor_type;location;lat;lon;timestamp;P1;durP1;ratioP1;P2;durP2;ratioP2
11646;SDS011;5880;52.342;9.662;2023-04-19T00:00:36;6.80;;;3.80;;
11646;SDS011;5880;52.342;9.662;2023-04-19T00:03:04;5.27;;;3.60;;
11646;SDS011;5880;52.342;9.662;2023-04-19T00:05:30;5.70;;;4.20;;
11646;SDS011;5880;52.342;9.662;2023-04-19T00:07:56;5.00;;;3.80;;
11646;SDS011;5880;52.342;9.662;2023-04-19T00:10:22;4.80;;;3.90;;
11646;SDS011;5880;52.342;9.662;2023-04-19T00:12:48;5.77;;;3.93;;
11646;SDS011;5880;52.342;9.662;2023-04-19T00:15:14;3.87;;;3.33;;
11646;SDS011;5880;52.342;9.662;2023-04-19T00:17:39;4.67;;;3.43;;
11646;SDS011;5880;52.342;9.662;2023-04-19T00:20:05;5.43;;;3.10;;
11646;SDS011;5880;52.342;9.662;2023-04-19T00:22:34;4.07;;;3.00;;
11646;SDS011;5880;52.342;9.662;2023-04-19T00:25:00;4.90;;;3.50;;
11646;SDS011;5880;52.342;9.662;2023-04-19T00:27:26;5.07;;;4.10;;
11646;SDS011;5880;52.342;9.662;2023-04-19T00:29:52;7.30;;;4.63;;
11646;SDS011;5880;52.342;9.662;2023-04-19T00:32:18;6.20;;;4.60;;
11646;SDS011;5880;52.342;9.662;2023-04-19T00:34:44;4.37;;;3.83;;
11646;SDS011;5880;52.342;9.662;2023-04-19T00:37:09;4.53;;;3.50;;
11646;SDS011;5880;52.342;9.662;2023-04-19T00:39:35;4.53;;;3.20;;
11646;SDS011;5880;52.342;9.662;2023-04-19T00:42:01;5.63;;;3.50;;
11646;SDS011;5880;52.342;9.662;2023-04-19T00:44:27;3.67;;;2.67;;
11646;SDS011;5880;52.342;9.662;2023-04-19T00:46:53;3.20;;;2.90;;
11646;SDS011;5880;52.342;9.662;2023-04-19T00:49:21;3.63;;;2.70;;
11646;SDS011;5880;52.342;9.662;2023-04-19T00:51:48;3.67;;;3.00;;
11646;SDS011;5880;52.342;9.662;2023-04-19T00:54:15;4.53;;;3.00;;
11646;SDS011;5880;52.342;9.662;2023-04-19T00:56:43;5.10;;;2.77;;
11646;SDS011;5880;52.342;9.662;2023-04-19T00:59:09;4.00;;;2.47;;
11646;SDS011;5880;52.342;9.662;2023-04-19T01:01:38;3.93;;;2.63;;
11646;SDS011;5880;52.342;9.662;2023-04-19T01:04:04;4.03;;;2.60;;
11646;SDS011;5880;52.342;9.662;2023-04-19T01:06:30;4.20;;;2.60;;
11646;SDS011;5880;52.342;9.662;2023-04-19T01:08:57;3.97;;;3.60;;
11646;SDS011;5880;52.342;9.662;2023-04-19T01:11:23;4.53;;;3.23;;
11646;SDS011;5880;52.342;9.662;2023-04-19T01:13:49;3.43;;;2.93;;
11646;SDS011;5880;52.342;9.662;2023-04-19T01:16:15;5.40;;;4.00;;
11646;SDS011;5880;52.342;9.662;2023-04-19T01:18:42;7.97;;;5.67;;
11646;SDS011;5880;52.342;9.662;2023-04-19T01:21:08;5.67;;;4.33;;
11646;SDS011;5880;52.342;9.662;2023-04-19T01:23:35;6.10;;;5.50;;
11646;SDS011;5880;52.342;9.662;2023-04-19T01:26:02;4.10;;;3.70;;
11646;SDS011;5880;52.342;9.662;2023-04-19T01:28:29;3.70;;;3.00;;
11646;SDS011;5880;52.342;9.662;2023-04-19T01:30:55;3.97;;;2.70;;
11646;SDS011;5880;52.342;9.662;2023-04-19T01:33:21;3.53;;;2.73;;
11646;SDS011;5880;52.342;9.662;2023-04-19T01:35:47;3.17;;;2.33;;
11646;SDS011;5880;52.342;9.662;2023-04-19T01:38:14;6.07;;;2.40;;
11646;SDS011;5880;52.342;9.662;2023-04-19T01:40:40;4.97;;;3.67;;
11646;SDS011;5880;52.342;9.662;2023-04-19T01:43:07;5.40;;;3.80;;
11646;SDS011;5880;52.342;9.662;2023-04-19T01:45:34;5.07;;;4.30;;
11646;SDS011;5880;52.342;9.662;2023-04-19T01:48:01;4.97;;;3.10;;
11646;SDS011;5880;52.342;9.662;2023-04-19T01:50:28;4.33;;;2.70;;
11646;SDS011;5880;52.342;9.662;2023-04-19T01:52:54;4.40;;;2.57;;
11646;SDS011;5880;52.342;9.662;2023-04-19T01:55:20;3.40;;;2.67;;
11646;SDS011;5880;52.342;9.662;2023-04-19T01:57:46;2.97;;;2.53;;
11646;SDS011;5880;52.342;9.662;2023-04-19T02:00:12;2.93;;;2.47;;
11646;SDS011;5880;52.342;9.662;2023-04-19T02:02:39;3.03;;;2.60;;
11646;SDS011;5880;52.342;9.662;2023-04-19T02:05:06;3.60;;;2.63;;
11646;SDS011;5880;52.342;9.662;2023-04-19T02:07:32;3.33;;;2.50;;
11646;SDS011;5880;52.342;9.662;2023-04-19T02:09:58;3.63;;;2.43;;
11646;SDS011;5880;52.342;9.662;2023-04-19T02:12:28;4.50;;;2.33;;
11646;SDS011;5880;52.342;9.662;2023-04-19T02:14:55;2.93;;;2.40;;
11646;SDS011;5880;52.342;9.662;2023-04-19T02:17:25;2.60;;;2.23;;
11646;SDS011;5880;52.342;9.662;2023-04-19T02:19:50;3.50;;;2.17;;
11646;SDS011;5880;52.342;9.662;2023-04-19T02:22:17;3.23;;;2.73;;
11646;SDS011;5880;52.342;9.662;2023-04-19T02:24:43;3.60;;;2.20;;
11646;SDS011;5880;52.342;9.662;2023-04-19T02:27:09;3.40;;;2.27;;
11646;SDS011;5880;52.342;9.662;2023-04-19T02:29:36;3.63;;;2.87;;
11646;SDS011;5880;52.342;9.662;2023-04-19T02:32:02;3.00;;;2.70;;
11646;SDS011;5880;52.342;9.662;2023-04-19T02:34:30;3.17;;;2.30;;
11646;SDS011;5880;52.342;9.662;2023-04-19T02:36:59;2.57;;;2.30;;
11646;SDS011;5880;52.342;9.662;2023-04-19T02:39:26;2.70;;;2.30;;
11646;SDS011;5880;52.342;9.662;2023-04-19T02:41:52;4.03;;;2.57;;
11646;SDS011;5880;52.342;9.662;2023-04-19T02:44:17;2.60;;;2.40;;
11646;SDS011;5880;52.342;9.662;2023-04-19T02:46:49;4.17;;;2.20;;
11646;SDS011;5880;52.342;9.662;2023-04-19T02:49:16;3.30;;;2.20;;
11646;SDS011;5880;52.342;9.662;2023-04-19T02:51:46;2.63;;;2.17;;
11646;SDS011;5880;52.342;9.662;2023-04-19T02:54:12;4.13;;;3.03;;
11646;SDS011;5880;52.342;9.662;2023-04-19T02:56:38;4.40;;;3.30;;
11646;SDS011;5880;52.342;9.662;2023-04-19T02:59:04;5.80;;;4.00;;
11646;SDS011;5880;52.342;9.662;2023-04-19T03:01:30;4.27;;;3.17;;
11646;SDS011;5880;52.342;9.662;2023-04-19T03:03:56;4.33;;;3.33;;
11646;SDS011;5880;52.342;9.662;2023-04-19T03:06:22;4.17;;;3.13;;
11646;SDS011;5880;52.342;9.662;2023-04-19T03:08:48;3.60;;;2.50;;
11646;SDS011;5880;52.342;9.662;2023-04-19T03:11:16;4.63;;;2.90;;
11646;SDS011;5880;52.342;9.662;2023-04-19T03:13:43;4.57;;;3.30;;
11646;SDS011;5880;52.342;9.662;2023-04-19T03:16:09;4.30;;;2.50;;
11646;SDS011;5880;52.342;9.662;2023-04-19T03:18:35;3.20;;;2.50;;
11646;SDS011;5880;52.342;9.662;2023-04-19T03:21:00;3.77;;;2.57;;
11646;SDS011;5880;52.342;9.662;2023-04-19T03:23:27;3.77;;;2.63;;
11646;SDS011;5880;52.342;9.662;2023-04-19T03:25:53;3.87;;;2.70;;
11646;SDS011;5880;52.342;9.662;2023-04-19T03:28:20;3.30;;;2.67;;
11646;SDS011;5880;52.342;9.662;2023-04-19T03:30:45;4.23;;;2.97;;
11646;SDS011;5880;52.342;9.662;2023-04-19T03:33:11;4.67;;;2.40;;
11646;SDS011;5880;52.342;9.662;2023-04-19T03:35:37;4.10;;;2.60;;
11646;SDS011;5880;52.342;9.662;2023-04-19T03:38:02;3.77;;;2.70;;
11646;SDS011;5880;52.342;9.662;2023-04-19T03:40:32;3.30;;;2.70;;
11646;SDS011;5880;52.342;9.662;2023-04-19T03:42:57;2.90;;;2.40;;
11646;SDS011;5880;52.342;9.662;2023-04-19T03:45:23;2.77;;;2.33;;
11646;SDS011;5880;52.342;9.662;2023-04-19T03:47:49;2.33;;;2.07;;
11646;SDS011;5880;52.342;9.662;2023-04-19T03:50:15;2.83;;;2.20;;
11646;SDS011;5880;52.342;9.662;2023-04-19T03:52:40;4.83;;;2.30;;
11646;SDS011;5880;52.342;9.662;2023-04-19T03:55:06;2.97;;;1.97;;
11646;SDS011;5880;52.342;9.662;2023-04-19T03:57:33;5.43;;;2.30;;
11646;SDS011;5880;52.342;9.662;2023-04-19T03:59:58;3.20;;;2.00;;
11646;SDS011;5880;52.342;9.662;2023-04-19T04:02:24;1.93;;;1.70;;
11646;SDS011;5880;52.342;9.662;2023-04-19T04:04:53;3.00;;;2.17;;
11646;SDS011;5880;52.342;9.662;2023-04-19T04:07:19;2.67;;;1.87;;
11646;SDS011;5880;52.342;9.662;2023-04-19T04:09:45;3.20;;;2.20;;
11646;SDS011;5880;52.342;9.662;2023-04-19T04:12:12;3.27;;;1.97;;
11646;SDS011;5880;52.342;9.662;2023-04-19T04:14:37;3.40;;;2.17;;
11646;SDS011;5880;52.342;9.662;2023-04-19T04:17:03;4.03;;;2.10;;
11646;SDS011;5880;52.342;9.662;2023-04-19T04:19:29;2.60;;;2.07;;
11646;SDS011;5880;52.342;9.662;2023-04-19T04:21:54;3.30;;;2.10;;
11646;SDS011;5880;52.342;9.662;2023-04-19T04:24:20;2.50;;;2.10;;
11646;SDS011;5880;52.342;9.662;2023-04-19T04:26:46;3.47;;;1.87;;
11646;SDS011;5880;52.342;9.662;2023-04-19T04:29:13;2.50;;;2.20;;
11646;SDS011;5880;52.342;9.662;2023-04-19T04:31:40;2.83;;;2.20;;
11646;SDS011;5880;52.342;9.662;2023-04-19T04:34:06;3.23;;;2.20;;
11646;SDS011;5880;52.342;9.662;2023-04-19T04:36:33;2.70;;;2.17;;
11646;SDS011;5880;52.342;9.662;2023-04-19T04:39:00;4.03;;;2.00;;
11646;SDS011;5880;52.342;9.662;2023-04-19T04:41:27;2.63;;;2.13;;
11646;SDS011;5880;52.342;9.662;2023-04-19T04:43:55;2.60;;;2.10;;
11646;SDS011;5880;52.342;9.662;2023-04-19T04:46:22;2.67;;;2.23;;
11646;SDS011;5880;52.342;9.662;2023-04-19T04:48:49;2.03;;;1.80;;
11646;SDS011;5880;52.342;9.662;2023-04-19T04:51:16;4.47;;;2.20;;
11646;SDS011;5880;52.342;9.662;2023-04-19T04:53:41;4.13;;;2.00;;
11646;SDS011;5880;52.342;9.662;2023-04-19T04:56:07;2.40;;;1.90;;
11646;SDS011;5880;52.342;9.662;2023-04-19T04:58:33;4.10;;;2.30;;
11646;SDS011;5880;52.342;9.662;2023-04-19T05:00:59;2.80;;;2.20;;
11646;SDS011;5880;52.342;9.662;2023-04-19T05:03:25;3.23;;;2.07;;
11646;SDS011;5880;52.342;9.662;2023-04-19T05:05:51;4.07;;;2.00;;
11646;SDS011;5880;52.342;9.662;2023-04-19T05:08:17;3.30;;;2.30;;
11646;SDS011;5880;52.342;9.662;2023-04-19T05:10:42;2.27;;;2.00;;
11646;SDS011;5880;52.342;9.662;2023-04-19T05:13:08;2.90;;;1.70;;
11646;SDS011;5880;52.342;9.662;2023-04-19T05:15:34;2.77;;;1.90;;
11646;SDS011;5880;52.342;9.662;2023-04-19T05:18:00;3.23;;;2.10;;
11646;SDS011;5880;52.342;9.662;2023-04-19T05:20:26;3.37;;;2.13;;
11646;SDS011;5880;52.342;9.662;2023-04-19T05:22:57;3.77;;;2.00;;
11646;SDS011;5880;52.342;9.662;2023-04-19T05:25:23;3.90;;;2.20;;
11646;SDS011;5880;52.342;9.662;2023-04-19T05:27:49;2.50;;;2.20;;
11646;SDS011;5880;52.342;9.662;2023-04-19T05:30:14;3.83;;;2.17;;
11646;SDS011;5880;52.342;9.662;2023-04-19T05:32:40;3.93;;;2.20;;
11646;SDS011;5880;52.342;9.662;2023-04-19T05:35:06;3.17;;;2.00;;
11646;SDS011;5880;52.342;9.662;2023-04-19T05:37:32;3.13;;;2.10;;
11646;SDS011;5880;52.342;9.662;2023-04-19T05:39:58;2.93;;;2.00;;
11646;SDS011;5880;52.342;9.662;2023-04-19T05:42:23;2.53;;;2.30;;
11646;SDS011;5880;52.342;9.662;2023-04-19T05:44:49;2.63;;;1.90;;
11646;SDS011;5880;52.342;9.662;2023-04-19T05:47:15;2.33;;;1.93;;
11646;SDS011;5880;52.342;9.662;2023-04-19T05:49:41;2.30;;;1.80;;
11646;SDS011;5880;52.342;9.662;2023-04-19T05:52:07;3.40;;;2.10;;
11646;SDS011;5880;52.342;9.662;2023-04-19T05:54:32;2.57;;;2.00;;
11646;SDS011;5880;52.342;9.662;2023-04-19T05:57:00;3.30;;;2.40;;
11646;SDS011;5880;52.342;9.662;2023-04-19T05:59:27;3.70;;;2.23;;
11646;SDS011;5880;52.342;9.662;2023-04-19T06:01:52;3.00;;;2.03;;
11646;SDS011;5880;52.342;9.662;2023-04-19T06:04:19;3.10;;;2.20;;
11646;SDS011;5880;52.342;9.662;2023-04-19T06:06:46;2.93;;;2.40;;
11646;SDS011;5880;52.342;9.662;2023-04-19T06:09:11;3.70;;;2.17;;
11646;SDS011;5880;52.342;9.662;2023-04-19T06:11:38;2.23;;;1.80;;
11646;SDS011;5880;52.342;9.662;2023-04-19T06:14:05;3.43;;;2.20;;
11646;SDS011;5880;52.342;9.662;2023-04-19T06:16:30;3.70;;;1.90;;
11646;SDS011;5880;52.342;9.662;2023-04-19T06:18:56;2.73;;;2.00;;
11646;SDS011;5880;52.342;9.662;2023-04-19T06:21:22;3.73;;;2.00;;
11646;SDS011;5880;52.342;9.662;2023-04-19T06:23:47;2.20;;;1.80;;
11646;SDS011;5880;52.342;9.662;2023-04-19T06:26:13;3.70;;;2.13;;
11646;SDS011;5880;52.342;9.662;2023-04-19T06:28:39;2.53;;;2.00;;
11646;SDS011;5880;52.342;9.662;2023-04-19T06:31:04;2.42;;;1.98;;
11646;SDS011;5880;52.342;9.662;2023-04-19T06:33:30;1.90;;;1.80;;
11646;SDS011;5880;52.342;9.662;2023-04-19T06:35:56;2.22;;;1.70;;
11646;SDS011;5880;52.342;9.662;2023-04-19T06:38:21;2.17;;;1.90;;
11646;SDS011;5880;52.342;9.662;2023-04-19T06:40:47;2.00;;;1.70;;
11646;SDS011;5880;52.342;9.662;2023-04-19T06:43:13;2.47;;;1.75;;
11646;SDS011;5880;52.342;9.662;2023-04-19T06:45:38;1.83;;;1.70;;
11646;SDS011;5880;52.342;9.662;2023-04-19T06:48:04;2.58;;;1.90;;
11646;SDS011;5880;52.342;9.662;2023-04-19T06:50:30;2.47;;;1.85;;
11646;SDS011;5880;52.342;9.662;2023-04-19T06:52:55;3.03;;;2.00;;
11646;SDS011;5880;52.342;9.662;2023-04-19T06:55:21;3.00;;;2.10;;
11646;SDS011;5880;52.342;9.662;2023-04-19T06:57:47;1.85;;;1.70;;
11646;SDS011;5880;52.342;9.662;2023-04-19T07:00:13;1.98;;;1.80;;
11646;SDS011;5880;52.342;9.662;2023-04-19T07:02:39;1.80;;;1.70;;
11646;SDS011;5880;52.342;9.662;2023-04-19T07:05:04;1.75;;;1.60;;
11646;SDS011;5880;52.342;9.662;2023-04-19T07:07:31;1.65;;;1.40;;
11646;SDS011;5880;52.342;9.662;2023-04-19T07:09:57;1.40;;;1.30;;
11646;SDS011;5880;52.342;9.662;2023-04-19T07:12:23;2.40;;;1.48;;
11646;SDS011;5880;52.342;9.662;2023-04-19T07:14:48;1.70;;;1.45;;
11646;SDS011;5880;52.342;9.662;2023-04-19T07:17:20;1.80;;;1.42;;
11646;SDS011;5880;52.342;9.662;2023-04-19T07:19:47;1.52;;;1.42;;
11646;SDS011;5880;52.342;9.662;2023-04-19T07:22:13;1.60;;;1.50;;
11646;SDS011;5880;52.342;9.662;2023-04-19T07:24:39;1.33;;;1.23;;
11646;SDS011;5880;52.342;9.662;2023-04-19T07:27:06;2.42;;;1.60;;
11646;SDS011;5880;52.342;9.662;2023-04-19T07:29:35;1.33;;;1.23;;
11646;SDS011;5880;52.342;9.662;2023-04-19T07:32:01;2.33;;;1.60;;
11646;SDS011;5880;52.342;9.662;2023-04-19T07:34:27;1.60;;;1.30;;
11646;SDS011;5880;52.342;9.662;2023-04-19T07:36:53;1.45;;;1.35;;
11646;SDS011;5880;52.342;9.662;2023-04-19T07:39:19;1.98;;;1.52;;
11646;SDS011;5880;52.342;9.662;2023-04-19T07:41:44;2.42;;;1.73;;
11646;SDS011;5880;52.342;9.662;2023-04-19T07:44:10;2.50;;;1.50;;
11646;SDS011;5880;52.342;9.662;2023-04-19T07:46:37;1.55;;;1.45;;
11646;SDS011;5880;52.342;9.662;2023-04-19T07:49:05;1.90;;;1.70;;
11646;SDS011;5880;52.342;9.662;2023-04-19T07:51:31;1.60;;;1.50;;
11646;SDS011;5880;52.342;9.662;2023-04-19T07:53:56;1.83;;;1.48;;
11646;SDS011;5880;52.342;9.662;2023-04-19T07:56:22;2.00;;;1.67;;
11646;SDS011;5880;52.342;9.662;2023-04-19T07:58:50;1.42;;;1.30;;
11646;SDS011;5880;52.342;9.662;2023-04-19T08:01:16;1.60;;;1.50;;
11646;SDS011;5880;52.342;9.662;2023-04-19T08:03:41;1.67;;;1.58;;
11646;SDS011;5880;52.342;9.662;2023-04-19T08:06:07;3.00;;;1.60;;
11646;SDS011;5880;52.342;9.662;2023-04-19T08:08:33;1.65;;;1.55;;
11646;SDS011;5880;52.342;9.662;2023-04-19T08:11:02;1.80;;;1.58;;
11646;SDS011;5880;52.342;9.662;2023-04-19T08:13:29;2.28;;;1.70;;
11646;SDS011;5880;52.342;9.662;2023-04-19T08:15:55;2.55;;;1.48;;
11646;SDS011;5880;52.342;9.662;2023-04-19T08:18:20;1.67;;;1.58;;
11646;SDS011;5880;52.342;9.662;2023-04-19T08:20:46;1.90;;;1.70;;
11646;SDS011;5880;52.342;9.662;2023-04-19T08:23:12;3.05;;;1.83;;
11646;SDS011;5880;52.342;9.662;2023-04-19T08:25:38;2.33;;;1.80;;
11646;SDS011;5880;52.342;9.662;2023-04-19T08:28:04;2.20;;;1.75;;
11646;SDS011;5880;52.342;9.662;2023-04-19T08:30:30;3.22;;;1.83;;
11646;SDS011;5880;52.342;9.662;2023-04-19T08:32:56;1.90;;;1.73;;
11646;SDS011;5880;52.342;9.662;2023-04-19T08:35:22;2.20;;;1.98;;
11646;SDS011;5880;52.342;9.662;2023-04-19T08:37:49;2.00;;;1.67;;
11646;SDS011;5880;52.342;9.662;2023-04-19T08:40:15;3.55;;;1.90;;
11646;SDS011;5880;52.342;9.662;2023-04-19T08:42:41;2.65;;;1.70;;
11646;SDS011;5880;52.342;9.662;2023-04-19T08:45:08;2.55;;;1.95;;
11646;SDS011;5880;52.342;9.662;2023-04-19T08:47:37;2.38;;;2.13;;
11646;SDS011;5880;52.342;9.662;2023-04-19T08:50:05;2.17;;;1.98;;
11646;SDS011;5880;52.342;9.662;2023-04-19T08:52:33;2.40;;;2.20;;
11646;SDS011;5880;52.342;9.662;2023-04-19T08:55:03;1.73;;;1.63;;
11646;SDS011;5880;52.342;9.662;2023-04-19T08:57:31;3.08;;;1.75;;
11646;SDS011;5880;52.342;9.662;2023-04-19T08:59:59;3.50;;;2.10;;
11646;SDS011;5880;52.342;9.662;2023-04-19T09:02:53;3.67;;;2.00;;
11646;SDS011;5880;52.342;9.662;2023-04-19T09:05:21;4.30;;;1.60;;
11646;SDS011;5880;52.342;9.662;2023-04-19T09:07:47;3.65;;;2.00;;
11646;SDS011;5880;52.342;9.662;2023-04-19T09:10:17;2.03;;;1.63;;
11646;SDS011;5880;52.342;9.662;2023-04-19T09:13:00;3.10;;;1.85;;
11646;SDS011;5880;52.342;9.662;2023-04-19T09:15:36;2.20;;;2.00;;
11646;SDS011;5880;52.342;9.662;2023-04-19T09:18:05;3.15;;;1.80;;
11646;SDS011;5880;52.342;9.662;2023-04-19T09:20:40;2.53;;;1.93;;
11646;SDS011;5880;52.342;9.662;2023-04-19T09:23:08;2.22;;;1.80;;
11646;SDS011;5880;52.342;9.662;2023-04-19T09:25:37;2.05;;;1.80;;
11646;SDS011;5880;52.342;9.662;2023-04-19T09:28:11;4.15;;;2.00;;
11646;SDS011;5880;52.342;9.662;2023-04-19T09:30:39;1.95;;;1.67;;
11646;SDS011;5880;52.342;9.662;2023-04-19T09:33:06;2.20;;;1.95;;
11646;SDS011;5880;52.342;9.662;2023-04-19T09:35:38;3.03;;;2.00;;
11646;SDS011;5880;52.342;9.662;2023-04-19T09:38:14;1.80;;;1.60;;
11646;SDS011;5880;52.342;9.662;2023-04-19T09:40:40;4.03;;;2.00;;
11646;SDS011;5880;52.342;9.662;2023-04-19T09:43:07;2.20;;;2.00;;
11646;SDS011;5880;52.342;9.662;2023-04-19T09:45:41;2.90;;;2.00;;
11646;SDS011;5880;52.342;9.662;2023-04-19T09:48:09;3.37;;;2.10;;
11646;SDS011;5880;52.342;9.662;2023-04-19T09:50:49;5.57;;;2.40;;
11646;SDS011;5880;52.342;9.662;2023-04-19T09:53:18;2.07;;;1.90;;
11646;SDS011;5880;52.342;9.662;2023-04-19T09:55:45;2.90;;;2.13;;
11646;SDS011;5880;52.342;9.662;2023-04-19T09:58:11;3.43;;;1.97;;
11646;SDS011;5880;52.342;9.662;2023-04-19T10:00:39;3.30;;;2.00;;
11646;SDS011;5880;52.342;9.662;2023-04-19T10:03:08;2.10;;;1.90;;
11646;SDS011;5880;52.342;9.662;2023-04-19T10:05:38;2.13;;;1.90;;
11646;SDS011;5880;52.342;9.662;2023-04-19T10:08:09;2.10;;;1.90;;
11646;SDS011;5880;52.342;9.662;2023-04-19T10:10:36;2.97;;;2.00;;
11646;SDS011;5880;52.342;9.662;2023-04-19T10:13:06;3.10;;;2.00;;
11646;SDS011;5880;52.342;9.662;2023-04-19T10:15:35;4.27;;;1.90;;
11646;SDS011;5880;52.342;9.662;2023-04-19T10:18:03;2.87;;;1.80;;
11646;SDS011;5880;52.342;9.662;2023-04-19T10:20:36;3.03;;;2.28;;
11646;SDS011;5880;52.342;9.662;2023-04-19T10:23:13;2.88;;;2.00;;
11646;SDS011;5880;52.342;9.662;2023-04-19T10:25:44;1.75;;;1.65;;
11646;SDS011;5880;52.342;9.662;2023-04-19T10:28:11;5.32;;;2.20;;
11646;SDS011;5880;52.342;9.662;2023-04-19T10:30:52;2.00;;;1.90;;
11646;SDS011;5880;52.342;9.662;2023-04-19T10:33:26;3.10;;;2.00;;
11646;SDS011;5880;52.342;9.662;2023-04-19T10:35:55;1.90;;;1.60;;
11646;SDS011;5880;52.342;9.662;2023-04-19T10:41:19;3.13;;;1.73;;
11646;SDS011;5880;52.342;9.662;2023-04-19T10:48:52;2.67;;;1.73;;
11646;SDS011;5880;52.342;9.662;2023-04-19T10:51:28;2.07;;;1.67;;
11646;SDS011;5880;52.342;9.662;2023-04-19T10:54:03;3.40;;;1.52;;
11646;SDS011;5880;52.342;9.662;2023-04-19T10:59:36;1.70;;;1.40;;
11646;SDS011;5880;52.342;9.662;2023-04-19T11:07:17;2.30;;;1.42;;
11646;SDS011;5880;52.342;9.662;2023-04-19T11:09:45;2.03;;;1.60;;
11646;SDS011;5880;52.342;9.662;2023-04-19T11:12:14;1.92;;;1.70;;
11646;SDS011;5880;52.342;9.662;2023-04-19T11:14:44;2.38;;;1.67;;
11646;SDS011;5880;52.342;9.662;2023-04-19T11:17:21;1.92;;;1.73;;
11646;SDS011;5880;52.342;9.662;2023-04-19T11:22:24;2.72;;;1.73;;
11646;SDS011;5880;52.342;9.662;2023-04-19T11:25:05;1.83;;;1.60;;
11646;SDS011;5880;52.342;9.662;2023-04-19T11:27:38;3.25;;;1.80;;
11646;SDS011;5880;52.342;9.662;2023-04-19T11:30:17;2.30;;;1.55;;
11646;SDS011;5880;52.342;9.662;2023-04-19T11:32:53;2.40;;;1.95;;
11646;SDS011;5880;52.342;9.662;2023-04-19T11:35:25;6.28;;;1.50;;
11646;SDS011;5880;52.342;9.662;2023-04-19T11:37:53;2.08;;;1.73;;
11646;SDS011;5880;52.342;9.662;2023-04-19T11:40:21;2.78;;;1.98;;
11646;SDS011;5880;52.342;9.662;2023-04-19T11:42:57;2.90;;;2.00;;
11646;SDS011;5880;52.342;9.662;2023-04-19T11:45:27;3.07;;;2.00;;
11646;SDS011;5880;52.342;9.662;2023-04-19T11:47:55;2.28;;;1.77;;
11646;SDS011;5880;52.342;9.662;2023-04-19T11:50:31;2.57;;;1.87;;
11646;SDS011;5880;52.342;9.662;2023-04-19T11:53:18;1.58;;;1.48;;
11646;SDS011;5880;52.342;9.662;2023-04-19T11:55:48;2.67;;;1.70;;
11646;SDS011;5880;52.342;9.662;2023-04-19T12:00:49;2.13;;;1.80;;
11646;SDS011;5880;52.342;9.662;2023-04-19T12:03:15;2.77;;;1.87;;
11646;SDS011;5880;52.342;9.662;2023-04-19T12:05:53;3.80;;;1.63;;
11646;SDS011;5880;52.342;9.662;2023-04-19T12:08:35;1.75;;;1.65;;
11646;SDS011;5880;52.342;9.662;2023-04-19T12:11:12;2.50;;;2.03;;
11646;SDS011;5880;52.342;9.662;2023-04-19T12:13:39;2.83;;;1.97;;
11646;SDS011;5880;52.342;9.662;2023-04-19T12:16:05;2.92;;;2.25;;
11646;SDS011;5880;52.342;9.662;2023-04-19T12:19:33;3.90;;;2.08;;
11646;SDS011;5880;52.342;9.662;2023-04-19T12:21:41;2.55;;;2.00;;
11646;SDS011;5880;52.342;9.662;2023-04-19T12:24:08;2.92;;;2.00;;
11646;SDS011;5880;52.342;9.662;2023-04-19T12:26:34;3.55;;;2.40;;
11646;SDS011;5880;52.342;9.662;2023-04-19T12:29:02;2.40;;;2.20;;
11646;SDS011;5880;52.342;9.662;2023-04-19T12:31:30;2.40;;;2.00;;
11646;SDS011;5880;52.342;9.662;2023-04-19T12:33:59;3.97;;;2.30;;
11646;SDS011;5880;52.342;9.662;2023-04-19T12:36:24;2.28;;;1.95;;
11646;SDS011;5880;52.342;9.662;2023-04-19T12:38:50;2.97;;;2.00;;
11646;SDS011;5880;52.342;9.662;2023-04-19T12:41:16;3.83;;;2.10;;
11646;SDS011;5880;52.342;9.662;2023-04-19T12:43:41;2.30;;;1.85;;
11646;SDS011;5880;52.342;9.662;2023-04-19T12:46:07;4.43;;;2.40;;
11646;SDS011;5880;52.342;9.662;2023-04-19T12:48:33;2.17;;;1.98;;
11646;SDS011;5880;52.342;9.662;2023-04-19T12:50:58;3.25;;;2.13;;
11646;SDS011;5880;52.342;9.662;2023-04-19T12:53:24;2.92;;;2.40;;
11646;SDS011;5880;52.342;9.662;2023-04-19T12:55:50;2.42;;;1.88;;
11646;SDS011;5880;52.342;9.662;2023-04-19T12:58:16;2.53;;;2.15;;
11646;SDS011;5880;52.342;9.662;2023-04-19T13:00:42;2.92;;;2.17;;
11646;SDS011;5880;52.342;9.662;2023-04-19T13:03:09;4.68;;;2.20;;
11646;SDS011;5880;52.342;9.662;2023-04-19T13:05:36;4.05;;;2.30;;
11646;SDS011;5880;52.342;9.662;2023-04-19T13:08:02;3.38;;;2.00;;
11646;SDS011;5880;52.342;9.662;2023-04-19T13:10:29;2.60;;;2.17;;
11646;SDS011;5880;52.342;9.662;2023-04-19T13:12:54;2.70;;;2.20;;
11646;SDS011;5880;52.342;9.662;2023-04-19T13:15:20;3.83;;;2.87;;
11646;SDS011;5880;52.342;9.662;2023-04-19T13:17:46;2.90;;;2.00;;
11646;SDS011;5880;52.342;9.662;2023-04-19T13:20:12;2.33;;;2.10;;
11646;SDS011;5880;52.342;9.662;2023-04-19T13:22:37;2.83;;;2.10;;
11646;SDS011;5880;52.342;9.662;2023-04-19T13:25:03;2.73;;;2.50;;
11646;SDS011;5880;52.342;9.662;2023-04-19T13:27:30;2.87;;;2.07;;
11646;SDS011;5880;52.342;9.662;2023-04-19T13:29:55;2.83;;;2.53;;
11646;SDS011;5880;52.342;9.662;2023-04-19T13:32:21;3.13;;;2.30;;
11646;SDS011;5880;52.342;9.662;2023-04-19T13:34:47;3.57;;;2.20;;
11646;SDS011;5880;52.342;9.662;2023-04-19T13:37:13;4.43;;;2.40;;
11646;SDS011;5880;52.342;9.662;2023-04-19T13:39:39;2.63;;;2.40;;
11646;SDS011;5880;52.342;9.662;2023-04-19T13:42:04;2.43;;;2.23;;
11646;SDS011;5880;52.342;9.662;2023-04-19T13:44:30;3.97;;;2.37;;
11646;SDS011;5880;52.342;9.662;2023-04-19T13:46:56;2.40;;;2.10;;
11646;SDS011;5880;52.342;9.662;2023-04-19T13:49:22;2.30;;;2.10;;
11646;SDS011;5880;52.342;9.662;2023-04-19T13:51:48;2.30;;;2.10;;
11646;SDS011;5880;52.342;9.662;2023-04-19T13:54:14;3.00;;;2.10;;
11646;SDS011;5880;52.342;9.662;2023-04-19T13:56:41;2.50;;;2.30;;
11646;SDS011;5880;52.342;9.662;2023-04-19T13:59:07;2.90;;;2.33;;
11646;SDS011;5880;52.342;9.662;2023-04-19T14:01:34;2.83;;;2.20;;
11646;SDS011;5880;52.342;9.662;2023-04-19T14:04:01;2.93;;;2.50;;
11646;SDS011;5880;52.342;9.662;2023-04-19T14:06:26;3.23;;;2.40;;
11646;SDS011;5880;52.342;9.662;2023-04-19T14:08:52;3.37;;;2.40;;
11646;SDS011;5880;52.342;9.662;2023-04-19T14:11:18;3.20;;;2.60;;
11646;SDS011;5880;52.342;9.662;2023-04-19T14:13:44;3.87;;;2.73;;
11646;SDS011;5880;52.342;9.662;2023-04-19T14:16:12;3.50;;;2.77;;
11646;SDS011;5880;52.342;9.662;2023-04-19T14:18:38;5.90;;;3.13;;
11646;SDS011;5880;52.342;9.662;2023-04-19T14:21:04;3.03;;;2.83;;
11646;SDS011;5880;52.342;9.662;2023-04-19T14:23:29;4.37;;;3.20;;
11646;SDS011;5880;52.342;9.662;2023-04-19T14:25:56;5.30;;;2.97;;
11646;SDS011;5880;52.342;9.662;2023-04-19T14:28:22;2.47;;;2.20;;
11646;SDS011;5880;52.342;9.662;2023-04-19T14:30:47;2.93;;;2.50;;
11646;SDS011;5880;52.342;9.662;2023-04-19T14:33:13;3.83;;;2.47;;
11646;SDS011;5880;52.342;9.662;2023-04-19T14:35:39;3.77;;;2.30;;
11646;SDS011;5880;52.342;9.662;2023-04-19T14:38:06;3.00;;;2.10;;
11646;SDS011;5880;52.342;9.662;2023-04-19T14:40:31;4.70;;;2.53;;
11646;SDS011;5880;52.342;9.662;2023-04-19T14:42:57;4.57;;;2.60;;
11646;SDS011;5880;52.342;9.662;2023-04-19T14:45:23;2.90;;;2.37;;
11646;SDS011;5880;52.342;9.662;2023-04-19T14:47:48;3.67;;;2.57;;
11646;SDS011;5880;52.342;9.662;2023-04-19T14:50:14;3.30;;;2.50;;
11646;SDS011;5880;52.342;9.662;2023-04-19T14:52:40;3.33;;;2.70;;
11646;SDS011;5880;52.342;9.662;2023-04-19T14:55:06;3.40;;;3.10;;
11646;SDS011;5880;52.342;9.662;2023-04-19T14:57:32;3.50;;;2.40;;
11646;SDS011;5880;52.342;9.662;2023-04-19T14:59:58;3.67;;;2.60;;
11646;SDS011;5880;52.342;9.662;2023-04-19T15:02:25;2.93;;;2.40;;
11646;SDS011;5880;52.342;9.662;2023-04-19T15:04:51;3.23;;;2.30;;
11646;SDS011;5880;52.342;9.662;2023-04-19T15:07:17;3.23;;;2.37;;
11646;SDS011;5880;52.342;9.662;2023-04-19T15:09:43;3.43;;;2.40;;
11646;SDS011;5880;52.342;9.662;2023-04-19T15:12:09;2.93;;;2.60;;
11646;SDS011;5880;52.342;9.662;2023-04-19T15:14:35;3.67;;;2.37;;
11646;SDS011;5880;52.342;9.662;2023-04-19T15:17:00;5.10;;;2.60;;
11646;SDS011;5880;52.342;9.662;2023-04-19T15:19:26;3.30;;;2.47;;
11646;SDS011;5880;52.342;9.662;2023-04-19T15:21:53;3.80;;;2.47;;